sensor_id;sensor_type;location;lat;lon;timestamp;temperature;humidity
36652;DHT22;53334;51.976;20.144;2022-12-18T00:01:59;25.20;50.00
36652;DHT22;53334;51.976;20.144;2022-12-18T00:04:33;25.20;50.10
36652;DHT22;53334;51.976;20.144;2022-12-18T00:07:07;25.20;50.00
36652;DHT22;53334;51.976;20.144;2022-12-18T00:09:41;25.20;49.90
36652;DHT22;53334;51.976;20.144;2022-12-18T00:12:15;25.20;50.10
36652;DHT22;53334;51.976;20.144;2022-12-18T00:14:54;25.20;50.00
36652;DHT22;53334;51.976;20.144;2022-12-18T00:17:30;25.20;50.20
36652;DHT22;53334;51.976;20.144;2022-12-18T00:20:06;25.20;50.30
36652;DHT22;53334;51.976;20.144;2022-12-18T00:22:40;25.20;50.20
36652;DHT22;53334;51.976;20.144;2022-12-18T00:25:14;25.20;50.30
36652;DHT22;53334;51.976;20.144;2022-12-18T00:27:48;25.20;50.40
36652;DHT22;53334;51.976;20.144;2022-12-18T00:30:22;25.20;50.30
36652;DHT22;53334;51.976;20.144;2022-12-18T00:32:58;25.20;50.20
36652;DHT22;53334;51.976;20.144;2022-12-18T00:35:32;25.20;50.20
36652;DHT22;53334;51.976;20.144;2022-12-18T00:38:06;25.20;50.40
36652;DHT22;53334;51.976;20.144;2022-12-18T00:40:40;25.20;50.40
36652;DHT22;53334;51.976;20.144;2022-12-18T00:43:14;25.20;50.30
36652;DHT22;53334;51.976;20.144;2022-12-18T00:45:47;25.20;50.40
36652;DHT22;53334;51.976;20.144;2022-12-18T00:48:22;25.20;50.40
36652;DHT22;53334;51.976;20.144;2022-12-18T00:50:56;25.20;50.20
36652;DHT22;53334;51.976;20.144;2022-12-18T00:53:30;25.20;50.10
36652;DHT22;53334;51.976;20.144;2022-12-18T00:56:04;25.20;50.30
36652;DHT22;53334;51.976;20.144;2022-12-18T00:58:39;25.20;50.20
36652;DHT22;53334;51.976;20.144;2022-12-18T01:01:13;25.20;50.30
36652;DHT22;53334;51.976;20.144;2022-12-18T01:03:49;25.20;50.40
36652;DHT22;53334;51.976;20.144;2022-12-18T01:06:24;25.20;50.20
36652;DHT22;53334;51.976;20.144;2022-12-18T01:08:58;25.20;50.20
36652;DHT22;53334;51.976;20.144;2022-12-18T01:11:32;25.20;50.10
36652;DHT22;53334;51.976;20.144;2022-12-18T01:14:06;25.20;50.20
36652;DHT22;53334;51.976;20.144;2022-12-18T01:16:42;25.20;50.20
36652;DHT22;53334;51.976;20.144;2022-12-18T01:19:17;25.20;50.30
36652;DHT22;53334;51.976;20.144;2022-12-18T01:21:51;25.20;50.20
36652;DHT22;53334;51.976;20.144;2022-12-18T01:24:25;25.20;50.10
36652;DHT22;53334;51.976;20.144;2022-12-18T01:26:59;25.20;50.00
36652;DHT22;53334;51.976;20.144;2022-12-18T01:29:33;25.20;50.20
36652;DHT22;53334;51.976;20.144;2022-12-18T01:32:07;25.20;50.10
36652;DHT22;53334;51.976;20.144;2022-12-18T01:34:42;25.20;50.00
36652;DHT22;53334;51.976;20.144;2022-12-18T01:37:17;25.20;50.10
36652;DHT22;53334;51.976;20.144;2022-12-18T01:39:52;25.20;50.00
36652;DHT22;53334;51.976;20.144;2022-12-18T01:42:27;25.20;50.00
36652;DHT22;53334;51.976;20.144;2022-12-18T01:45:04;25.20;50.00
36652;DHT22;53334;51.976;20.144;2022-12-18T01:47:39;25.20;50.10
36652;DHT22;53334;51.976;20.144;2022-12-18T01:50:21;25.20;50.20
36652;DHT22;53334;51.976;20.144;2022-12-18T01:53:02;25.20;50.20
36652;DHT22;53334;51.976;20.144;2022-12-18T01:55:40;25.20;50.00
36652;DHT22;53334;51.976;20.144;2022-12-18T01:58:15;25.20;49.80
36652;DHT22;53334;51.976;20.144;2022-12-18T02:00:49;25.20;50.20
36652;DHT22;53334;51.976;20.144;2022-12-18T02:03:24;25.20;50.30
36652;DHT22;53334;51.976;20.144;2022-12-18T02:06:05;25.20;50.20
36652;DHT22;53334;51.976;20.144;2022-12-18T02:08:54;25.20;50.20
36652;DHT22;53334;51.976;20.144;2022-12-18T02:11:39;25.20;50.10
36652;DHT22;53334;51.976;20.144;2022-12-18T02:14:20;25.20;50.00
36652;DHT22;53334;51.976;20.144;2022-12-18T02:17:03;25.20;50.00
36652;DHT22;53334;51.976;20.144;2022-12-18T02:19:44;25.20;50.00
36652;DHT22;53334;51.976;20.144;2022-12-18T02:22:26;25.20;49.80
36652;DHT22;53334;51.976;20.144;2022-12-18T02:25:12;25.20;49.70
36652;DHT22;53334;51.976;20.144;2022-12-18T02:27:49;25.20;49.60
36652;DHT22;53334;51.976;20.144;2022-12-18T02:30:27;25.20;50.20
36652;DHT22;53334;51.976;20.144;2022-12-18T02:33:05;25.20;50.10
36652;DHT22;53334;51.976;20.144;2022-12-18T02:35:41;25.20;49.70
36652;DHT22;53334;51.976;20.144;2022-12-18T02:38:17;25.20;49.50
36652;DHT22;53334;51.976;20.144;2022-12-18T02:40:55;25.20;49.20
36652;DHT22;53334;51.976;20.144;2022-12-18T02:43:32;25.20;49.10
36652;DHT22;53334;51.976;20.144;2022-12-18T02:46:25;25.20;49.00
36652;DHT22;53334;51.976;20.144;2022-12-18T02:49:12;25.20;48.90
36652;DHT22;53334;51.976;20.144;2022-12-18T02:51:55;25.10;48.80
36652;DHT22;53334;51.976;20.144;2022-12-18T02:54:45;25.10;48.80
36652;DHT22;53334;51.976;20.144;2022-12-18T02:57:32;25.20;48.60
36652;DHT22;53334;51.976;20.144;2022-12-18T03:00:12;25.10;48.50
36652;DHT22;53334;51.976;20.144;2022-12-18T03:02:51;25.10;48.50
36652;DHT22;53334;51.976;20.144;2022-12-18T03:05:31;25.10;48.40
36652;DHT22;53334;51.976;20.144;2022-12-18T03:08:10;25.10;48.30
36652;DHT22;53334;51.976;20.144;2022-12-18T03:10:50;25.10;48.30
36652;DHT22;53334;51.976;20.144;2022-12-18T03:13:28;25.10;48.20
36652;DHT22;53334;51.976;20.144;2022-12-18T03:16:09;25.00;48.20
36652;DHT22;53334;51.976;20.144;2022-12-18T03:18:47;25.00;48.10
36652;DHT22;53334;51.976;20.144;2022-12-18T03:21:26;25.10;48.20
36652;DHT22;53334;51.976;20.144;2022-12-18T03:24:04;25.10;48.20
36652;DHT22;53334;51.976;20.144;2022-12-18T03:26:45;25.00;48.10
36652;DHT22;53334;51.976;20.144;2022-12-18T03:29:22;25.00;48.10
36652;DHT22;53334;51.976;20.144;2022-12-18T03:32:04;25.00;48.10
36652;DHT22;53334;51.976;20.144;2022-12-18T03:34:41;25.00;48.00
36652;DHT22;53334;51.976;20.144;2022-12-18T03:37:18;25.00;48.00
36652;DHT22;53334;51.976;20.144;2022-12-18T03:39:52;25.00;48.00
36652;DHT22;53334;51.976;20.144;2022-12-18T03:42:29;25.00;48.00
36652;DHT22;53334;51.976;20.144;2022-12-18T03:45:16;25.00;48.00
36652;DHT22;53334;51.976;20.144;2022-12-18T03:48:01;25.00;48.40
36652;DHT22;53334;51.976;20.144;2022-12-18T03:50:44;25.00;48.80
36652;DHT22;53334;51.976;20.144;2022-12-18T03:53:28;25.00;49.00
36652;DHT22;53334;51.976;20.144;2022-12-18T03:56:06;25.00;49.10
36652;DHT22;53334;51.976;20.144;2022-12-18T03:58:44;25.00;49.20
36652;DHT22;53334;51.976;20.144;2022-12-18T04:01:29;25.00;49.20
36652;DHT22;53334;51.976;20.144;2022-12-18T04:04:07;25.00;49.30
36652;DHT22;53334;51.976;20.144;2022-12-18T04:06:45;25.00;49.30
36652;DHT22;53334;51.976;20.144;2022-12-18T04:09:22;25.00;49.40
36652;DHT22;53334;51.976;20.144;2022-12-18T04:11:57;25.00;49.40
36652;DHT22;53334;51.976;20.144;2022-12-18T04:14:31;25.00;49.40
36652;DHT22;53334;51.976;20.144;2022-12-18T04:17:11;25.00;49.40
36652;DHT22;53334;51.976;20.144;2022-12-18T04:19:47;25.00;49.40
36652;DHT22;53334;51.976;20.144;2022-12-18T04:22:21;25.00;49.30
36652;DHT22;53334;51.976;20.144;2022-12-18T04:25:01;25.00;49.40
36652;DHT22;53334;51.976;20.144;2022-12-18T04:27:41;25.00;49.50
36652;DHT22;53334;51.976;20.144;2022-12-18T04:30:17;25.00;49.50
36652;DHT22;53334;51.976;20.144;2022-12-18T04:32:51;25.00;49.40
36652;DHT22;53334;51.976;20.144;2022-12-18T04:35:27;25.00;49.40
36652;DHT22;53334;51.976;20.144;2022-12-18T04:38:02;25.00;49.40
36652;DHT22;53334;51.976;20.144;2022-12-18T04:40:38;25.00;49.40
36652;DHT22;53334;51.976;20.144;2022-12-18T04:43:21;25.00;49.40
36652;DHT22;53334;51.976;20.144;2022-12-18T04:46:02;24.90;49.30
36652;DHT22;53334;51.976;20.144;2022-12-18T04:48:36;25.00;49.50
36652;DHT22;53334;51.976;20.144;2022-12-18T04:51:12;25.00;49.50
36652;DHT22;53334;51.976;20.144;2022-12-18T04:53:45;25.00;49.50
36652;DHT22;53334;51.976;20.144;2022-12-18T04:56:19;25.00;49.50
36652;DHT22;53334;51.976;20.144;2022-12-18T04:58:53;25.00;49.60
36652;DHT22;53334;51.976;20.144;2022-12-18T05:01:27;25.00;49.50
36652;DHT22;53334;51.976;20.144;2022-12-18T05:04:06;24.90;49.50
36652;DHT22;53334;51.976;20.144;2022-12-18T05:06:41;24.90;49.60
36652;DHT22;53334;51.976;20.144;2022-12-18T05:09:15;24.90;49.60
36652;DHT22;53334;51.976;20.144;2022-12-18T05:11:50;24.90;49.60
36652;DHT22;53334;51.976;20.144;2022-12-18T05:14:24;25.00;49.70
36652;DHT22;53334;51.976;20.144;2022-12-18T05:16:59;24.90;49.50
36652;DHT22;53334;51.976;20.144;2022-12-18T05:19:34;24.90;49.60
36652;DHT22;53334;51.976;20.144;2022-12-18T05:22:10;24.90;49.60
36652;DHT22;53334;51.976;20.144;2022-12-18T05:24:45;24.90;49.60
36652;DHT22;53334;51.976;20.144;2022-12-18T05:27:19;24.90;49.70
36652;DHT22;53334;51.976;20.144;2022-12-18T05:29:52;25.00;49.70
36652;DHT22;53334;51.976;20.144;2022-12-18T05:32:26;24.90;49.60
36652;DHT22;53334;51.976;20.144;2022-12-18T05:35:00;24.90;49.60
36652;DHT22;53334;51.976;20.144;2022-12-18T05:37:35;24.90;49.60
36652;DHT22;53334;51.976;20.144;2022-12-18T05:40:14;24.90;49.70
36652;DHT22;53334;51.976;20.144;2022-12-18T05:42:48;24.90;49.70
36652;DHT22;53334;51.976;20.144;2022-12-18T05:45:22;24.90;49.60
36652;DHT22;53334;51.976;20.144;2022-12-18T05:47:56;24.90;49.80
36652;DHT22;53334;51.976;20.144;2022-12-18T05:50:30;24.90;49.70
36652;DHT22;53334;51.976;20.144;2022-12-18T05:53:08;24.90;49.90
36652;DHT22;53334;51.976;20.144;2022-12-18T05:55:43;24.90;49.80
36652;DHT22;53334;51.976;20.144;2022-12-18T05:58:17;24.90;49.80
36652;DHT22;53334;51.976;20.144;2022-12-18T06:00:51;24.90;49.90
36652;DHT22;53334;51.976;20.144;2022-12-18T06:03:25;24.90;49.90
36652;DHT22;53334;51.976;20.144;2022-12-18T06:06:13;24.90;49.90
36652;DHT22;53334;51.976;20.144;2022-12-18T06:08:49;24.90;49.90
36652;DHT22;53334;51.976;20.144;2022-12-18T06:11:25;24.90;49.90
36652;DHT22;53334;51.976;20.144;2022-12-18T06:14:00;24.90;49.90
36652;DHT22;53334;51.976;20.144;2022-12-18T06:16:34;24.90;49.90
36652;DHT22;53334;51.976;20.144;2022-12-18T06:19:14;24.90;49.90
36652;DHT22;53334;51.976;20.144;2022-12-18T06:21:48;24.90;49.90
36652;DHT22;53334;51.976;20.144;2022-12-18T06:24:24;24.90;50.00
36652;DHT22;53334;51.976;20.144;2022-12-18T06:26:58;24.90;50.00
36652;DHT22;53334;51.976;20.144;2022-12-18T06:29:32;24.90;50.00
36652;DHT22;53334;51.976;20.144;2022-12-18T06:32:07;24.90;50.00
36652;DHT22;53334;51.976;20.144;2022-12-18T06:34:41;24.90;50.00
36652;DHT22;53334;51.976;20.144;2022-12-18T06:37:14;24.90;50.00
36652;DHT22;53334;51.976;20.144;2022-12-18T06:39:50;24.90;50.10
36652;DHT22;53334;51.976;20.144;2022-12-18T06:42:24;24.90;50.00
36652;DHT22;53334;51.976;20.144;2022-12-18T06:44:58;24.90;50.00
36652;DHT22;53334;51.976;20.144;2022-12-18T06:47:33;24.90;50.00
36652;DHT22;53334;51.976;20.144;2022-12-18T06:50:07;24.90;50.10
36652;DHT22;53334;51.976;20.144;2022-12-18T06:52:42;25.00;50.30
36652;DHT22;53334;51.976;20.144;2022-12-18T06:55:18;24.90;50.40
36652;DHT22;53334;51.976;20.144;2022-12-18T06:57:52;25.00;50.30
36652;DHT22;53334;51.976;20.144;2022-12-18T07:00:26;25.00;50.00
36652;DHT22;53334;51.976;20.144;2022-12-18T07:03:00;25.00;49.80
36652;DHT22;53334;51.976;20.144;2022-12-18T07:05:34;24.90;49.80
36652;DHT22;53334;51.976;20.144;2022-12-18T07:08:12;25.00;49.30
36652;DHT22;53334;51.976;20.144;2022-12-18T07:10:47;24.90;48.90
36652;DHT22;53334;51.976;20.144;2022-12-18T07:13:27;24.90;48.30
36652;DHT22;53334;51.976;20.144;2022-12-18T07:16:09;24.90;48.40
36652;DHT22;53334;51.976;20.144;2022-12-18T07:18:52;24.90;47.60
36652;DHT22;53334;51.976;20.144;2022-12-18T07:21:27;24.90;47.50
36652;DHT22;53334;51.976;20.144;2022-12-18T07:24:01;24.90;47.30
36652;DHT22;53334;51.976;20.144;2022-12-18T07:26:37;24.90;47.10
36652;DHT22;53334;51.976;20.144;2022-12-18T07:29:11;24.90;47.00
36652;DHT22;53334;51.976;20.144;2022-12-18T07:31:45;24.90;47.00
36652;DHT22;53334;51.976;20.144;2022-12-18T07:34:19;24.90;47.00
36652;DHT22;53334;51.976;20.144;2022-12-18T07:36:53;24.90;47.00
36652;DHT22;53334;51.976;20.144;2022-12-18T07:39:27;24.90;46.90
36652;DHT22;53334;51.976;20.144;2022-12-18T07:42:03;24.90;47.00
36652;DHT22;53334;51.976;20.144;2022-12-18T07:44:54;24.90;47.00
36652;DHT22;53334;51.976;20.144;2022-12-18T07:47:30;24.90;47.00
36652;DHT22;53334;51.976;20.144;2022-12-18T07:50:05;24.90;46.90
36652;DHT22;53334;51.976;20.144;2022-12-18T07:52:39;24.90;47.10
36652;DHT22;53334;51.976;20.144;2022-12-18T07:55:13;24.90;47.10
36652;DHT22;53334;51.976;20.144;2022-12-18T07:57:48;24.90;47.30
36652;DHT22;53334;51.976;20.144;2022-12-18T08:00:29;24.90;47.40
36652;DHT22;53334;51.976;20.144;2022-12-18T08:03:03;24.90;47.60
36652;DHT22;53334;51.976;20.144;2022-12-18T08:05:37;24.90;47.60
36652;DHT22;53334;51.976;20.144;2022-12-18T08:08:11;24.90;47.60
36652;DHT22;53334;51.976;20.144;2022-12-18T08:10:46;25.00;47.90
36652;DHT22;53334;51.976;20.144;2022-12-18T08:13:21;25.00;47.90
36652;DHT22;53334;51.976;20.144;2022-12-18T08:15:56;25.00;47.90
36652;DHT22;53334;51.976;20.144;2022-12-18T08:18:34;25.00;47.90
36652;DHT22;53334;51.976;20.144;2022-12-18T08:21:09;25.00;47.90
36652;DHT22;53334;51.976;20.144;2022-12-18T08:23:43;25.00;47.80
36652;DHT22;53334;51.976;20.144;2022-12-18T08:26:20;24.90;47.60
36652;DHT22;53334;51.976;20.144;2022-12-18T08:28:57;25.00;47.50
36652;DHT22;53334;51.976;20.144;2022-12-18T08:31:32;25.00;47.30
36652;DHT22;53334;51.976;20.144;2022-12-18T08:34:08;25.00;46.90
36652;DHT22;53334;51.976;20.144;2022-12-18T08:36:42;24.90;46.60
36652;DHT22;53334;51.976;20.144;2022-12-18T08:39:16;24.90;46.40
36652;DHT22;53334;51.976;20.144;2022-12-18T08:41:50;25.00;46.30
36652;DHT22;53334;51.976;20.144;2022-12-18T08:44:43;24.90;45.90
36652;DHT22;53334;51.976;20.144;2022-12-18T08:47:17;24.90;45.70
36652;DHT22;53334;51.976;20.144;2022-12-18T08:49:51;24.90;45.20
36652;DHT22;53334;51.976;20.144;2022-12-18T08:52:25;24.90;45.50
36652;DHT22;53334;51.976;20.144;2022-12-18T08:54:59;24.80;44.90
36652;DHT22;53334;51.976;20.144;2022-12-18T08:57:33;24.90;44.60
36652;DHT22;53334;51.976;20.144;2022-12-18T09:00:10;24.90;44.20
36652;DHT22;53334;51.976;20.144;2022-12-18T09:02:46;24.90;44.00
36652;DHT22;53334;51.976;20.144;2022-12-18T09:05:21;24.90;44.00
36652;DHT22;53334;51.976;20.144;2022-12-18T09:07:58;24.80;43.70
36652;DHT22;53334;51.976;20.144;2022-12-18T09:10:41;24.90;43.70
36652;DHT22;53334;51.976;20.144;2022-12-18T09:13:16;24.90;43.80
36652;DHT22;53334;51.976;20.144;2022-12-18T09:15:53;24.90;43.60
36652;DHT22;53334;51.976;20.144;2022-12-18T09:18:28;24.90;43.60
36652;DHT22;53334;51.976;20.144;2022-12-18T09:21:08;24.90;43.80
36652;DHT22;53334;51.976;20.144;2022-12-18T09:23:43;24.90;44.10
36652;DHT22;53334;51.976;20.144;2022-12-18T09:26:17;24.90;44.20
36652;DHT22;53334;51.976;20.144;2022-12-18T09:28:51;24.90;44.10
36652;DHT22;53334;51.976;20.144;2022-12-18T09:31:27;24.90;44.00
36652;DHT22;53334;51.976;20.144;2022-12-18T09:34:01;24.90;44.10
36652;DHT22;53334;51.976;20.144;2022-12-18T09:36:35;24.90;44.10
36652;DHT22;53334;51.976;20.144;2022-12-18T09:39:09;24.90;44.20
36652;DHT22;53334;51.976;20.144;2022-12-18T09:41:45;24.90;44.10
36652;DHT22;53334;51.976;20.144;2022-12-18T09:44:25;24.90;44.00
36652;DHT22;53334;51.976;20.144;2022-12-18T09:47:10;24.90;44.00
36652;DHT22;53334;51.976;20.144;2022-12-18T09:49:49;24.90;44.10
36652;DHT22;53334;51.976;20.144;2022-12-18T09:52:27;24.90;44.20
36652;DHT22;53334;51.976;20.144;2022-12-18T09:55:09;24.90;44.20
36652;DHT22;53334;51.976;20.144;2022-12-18T09:57:48;24.90;44.20
36652;DHT22;53334;51.976;20.144;2022-12-18T10:00:24;24.90;44.90
36652;DHT22;53334;51.976;20.144;2022-12-18T10:03:02;24.90;44.30
36652;DHT22;53334;51.976;20.144;2022-12-18T10:05:43;24.90;44.40
36652;DHT22;53334;51.976;20.144;2022-12-18T10:08:24;25.00;44.50
36652;DHT22;53334;51.976;20.144;2022-12-18T10:11:09;25.00;44.50
36652;DHT22;53334;51.976;20.144;2022-12-18T10:13:53;24.90;44.40
36652;DHT22;53334;51.976;20.144;2022-12-18T10:16:33;24.90;44.50
36652;DHT22;53334;51.976;20.144;2022-12-18T10:19:23;24.90;44.50
36652;DHT22;53334;51.976;20.144;2022-12-18T10:22:03;25.00;44.80
36652;DHT22;53334;51.976;20.144;2022-12-18T10:24:47;25.00;44.60
36652;DHT22;53334;51.976;20.144;2022-12-18T10:27:26;24.90;42.40
36652;DHT22;53334;51.976;20.144;2022-12-18T10:30:04;24.90;33.00
36652;DHT22;53334;51.976;20.144;2022-12-18T10:32:39;24.80;29.10
36652;DHT22;53334;51.976;20.144;2022-12-18T10:35:18;24.70;28.00
36652;DHT22;53334;51.976;20.144;2022-12-18T10:38:00;24.60;28.40
36652;DHT22;53334;51.976;20.144;2022-12-18T10:40:49;24.40;29.90
36652;DHT22;53334;51.976;20.144;2022-12-18T10:43:25;24.40;32.70
36652;DHT22;53334;51.976;20.144;2022-12-18T10:46:08;24.30;32.90
36652;DHT22;53334;51.976;20.144;2022-12-18T10:48:53;24.30;33.80
36652;DHT22;53334;51.976;20.144;2022-12-18T10:51:30;24.30;35.00
36652;DHT22;53334;51.976;20.144;2022-12-18T10:54:16;24.30;33.90
36652;DHT22;53334;51.976;20.144;2022-12-18T10:56:50;24.30;35.30
36652;DHT22;53334;51.976;20.144;2022-12-18T10:59:24;24.30;35.70
36652;DHT22;53334;51.976;20.144;2022-12-18T11:01:59;24.30;37.00
36652;DHT22;53334;51.976;20.144;2022-12-18T11:04:33;24.30;37.90
36652;DHT22;53334;51.976;20.144;2022-12-18T11:07:09;24.30;38.80
36652;DHT22;53334;51.976;20.144;2022-12-18T11:09:43;24.40;40.00
36652;DHT22;53334;51.976;20.144;2022-12-18T11:12:32;24.40;40.40
36652;DHT22;53334;51.976;20.144;2022-12-18T11:15:15;24.40;41.50
36652;DHT22;53334;51.976;20.144;2022-12-18T11:17:51;24.40;42.40
36652;DHT22;53334;51.976;20.144;2022-12-18T11:20:32;24.50;42.80
36652;DHT22;53334;51.976;20.144;2022-12-18T11:23:12;24.50;43.90
36652;DHT22;53334;51.976;20.144;2022-12-18T11:25:52;24.50;44.50
36652;DHT22;53334;51.976;20.144;2022-12-18T11:28:29;24.60;44.90
36652;DHT22;53334;51.976;20.144;2022-12-18T11:31:23;24.60;45.20
36652;DHT22;53334;51.976;20.144;2022-12-18T11:34:02;24.60;45.90
36652;DHT22;53334;51.976;20.144;2022-12-18T11:36:58;24.60;46.20
36652;DHT22;53334;51.976;20.144;2022-12-18T11:39:39;24.60;46.70
36652;DHT22;53334;51.976;20.144;2022-12-18T11:42:20;24.60;47.30
36652;DHT22;53334;51.976;20.144;2022-12-18T11:45:00;24.60;47.30
36652;DHT22;53334;51.976;20.144;2022-12-18T11:47:40;24.60;46.90
36652;DHT22;53334;51.976;20.144;2022-12-18T11:50:19;24.60;47.10
36652;DHT22;53334;51.976;20.144;2022-12-18T11:52:54;24.70;47.30
36652;DHT22;53334;51.976;20.144;2022-12-18T11:55:41;24.70;47.50
36652;DHT22;53334;51.976;20.144;2022-12-18T11:58:36;24.70;47.90
36652;DHT22;53334;51.976;20.144;2022-12-18T12:01:21;24.70;48.30
36652;DHT22;53334;51.976;20.144;2022-12-18T12:04:17;24.80;48.60
36652;DHT22;53334;51.976;20.144;2022-12-18T12:07:00;24.80;49.10
36652;DHT22;53334;51.976;20.144;2022-12-18T12:09:46;24.80;49.20
36652;DHT22;53334;51.976;20.144;2022-12-18T12:12:35;24.80;49.40
36652;DHT22;53334;51.976;20.144;2022-12-18T12:15:27;24.90;50.10
36652;DHT22;53334;51.976;20.144;2022-12-18T12:18:08;24.80;49.90
36652;DHT22;53334;51.976;20.144;2022-12-18T12:20:52;24.90;49.80
36652;DHT22;53334;51.976;20.144;2022-12-18T12:23:35;24.90;49.80
36652;DHT22;53334;51.976;20.144;2022-12-18T12:26:16;24.90;50.20
36652;DHT22;53334;51.976;20.144;2022-12-18T12:29:08;24.90;51.20
36652;DHT22;53334;51.976;20.144;2022-12-18T12:32:05;24.90;51.70
36652;DHT22;53334;51.976;20.144;2022-12-18T12:34:47;25.00;51.70
36652;DHT22;53334;51.976;20.144;2022-12-18T12:37:40;25.00;52.10
36652;DHT22;53334;51.976;20.144;2022-12-18T12:40:26;24.90;51.90
36652;DHT22;53334;51.976;20.144;2022-12-18T12:43:30;24.90;51.90
36652;DHT22;53334;51.976;20.144;2022-12-18T12:46:09;24.90;52.10
36652;DHT22;53334;51.976;20.144;2022-12-18T12:48:46;25.00;52.20
36652;DHT22;53334;51.976;20.144;2022-12-18T12:51:25;25.00;52.30
36652;DHT22;53334;51.976;20.144;2022-12-18T12:54:01;25.00;52.50
36652;DHT22;53334;51.976;20.144;2022-12-18T12:56:44;25.00;52.70
36652;DHT22;53334;51.976;20.144;2022-12-18T12:59:24;25.00;53.40
36652;DHT22;53334;51.976;20.144;2022-12-18T13:02:13;25.00;53.70
36652;DHT22;53334;51.976;20.144;2022-12-18T13:04:55;25.00;54.00
36652;DHT22;53334;51.976;20.144;2022-12-18T13:07:35;25.00;53.80
36652;DHT22;53334;51.976;20.144;2022-12-18T13:10:24;25.10;53.40
36652;DHT22;53334;51.976;20.144;2022-12-18T13:13:00;25.00;53.00
36652;DHT22;53334;51.976;20.144;2022-12-18T13:15:38;25.00;52.60
36652;DHT22;53334;51.976;20.144;2022-12-18T13:18:19;25.10;52.50
36652;DHT22;53334;51.976;20.144;2022-12-18T13:21:04;25.00;52.20
36652;DHT22;53334;51.976;20.144;2022-12-18T13:23:42;25.00;52.10
36652;DHT22;53334;51.976;20.144;2022-12-18T13:26:41;25.00;52.10
36652;DHT22;53334;51.976;20.144;2022-12-18T13:29:41;25.00;52.00
36652;DHT22;53334;51.976;20.144;2022-12-18T13:32:21;25.00;51.90
36652;DHT22;53334;51.976;20.144;2022-12-18T13:38:21;25.00;52.00
36652;DHT22;53334;51.976;20.144;2022-12-18T13:40:57;25.00;51.70
36652;DHT22;53334;51.976;20.144;2022-12-18T13:43:39;25.00;51.50
36652;DHT22;53334;51.976;20.144;2022-12-18T13:46:21;25.00;51.40
36652;DHT22;53334;51.976;20.144;2022-12-18T13:49:02;25.00;50.60
36652;DHT22;53334;51.976;20.144;2022-12-18T13:51:40;25.00;50.00
36652;DHT22;53334;51.976;20.144;2022-12-18T13:54:21;25.00;49.70
36652;DHT22;53334;51.976;20.144;2022-12-18T13:56:58;25.00;49.50
36652;DHT22;53334;51.976;20.144;2022-12-18T13:59:35;25.00;49.40
36652;DHT22;53334;51.976;20.144;2022-12-18T14:02:14;24.90;49.20
36652;DHT22;53334;51.976;20.144;2022-12-18T14:04:49;24.90;49.10
36652;DHT22;53334;51.976;20.144;2022-12-18T14:07:26;24.90;48.90
36652;DHT22;53334;51.976;20.144;2022-12-18T14:10:14;24.90;48.80
36652;DHT22;53334;51.976;20.144;2022-12-18T14:13:11;24.90;47.30
36652;DHT22;53334;51.976;20.144;2022-12-18T14:15:49;24.90;47.90
36652;DHT22;53334;51.976;20.144;2022-12-18T14:18:26;24.90;47.60
36652;DHT22;53334;51.976;20.144;2022-12-18T14:21:04;25.00;47.60
36652;DHT22;53334;51.976;20.144;2022-12-18T14:23:41;24.90;48.00
36652;DHT22;53334;51.976;20.144;2022-12-18T14:26:25;25.00;48.30
36652;DHT22;53334;51.976;20.144;2022-12-18T14:29:19;25.00;48.50
36652;DHT22;53334;51.976;20.144;2022-12-18T14:32:09;25.00;48.80
36652;DHT22;53334;51.976;20.144;2022-12-18T14:34:51;25.00;49.10
36652;DHT22;53334;51.976;20.144;2022-12-18T14:37:26;25.00;49.30
36652;DHT22;53334;51.976;20.144;2022-12-18T14:40:11;25.00;49.40
36652;DHT22;53334;51.976;20.144;2022-12-18T14:42:47;25.00;49.30
36652;DHT22;53334;51.976;20.144;2022-12-18T14:45:49;25.00;49.10
36652;DHT22;53334;51.976;20.144;2022-12-18T14:48:35;25.00;48.90
36652;DHT22;53334;51.976;20.144;2022-12-18T14:51:16;25.00;49.30
36652;DHT22;53334;51.976;20.144;2022-12-18T14:53:54;25.00;49.50
36652;DHT22;53334;51.976;20.144;2022-12-18T14:56:30;25.00;49.70
36652;DHT22;53334;51.976;20.144;2022-12-18T14:59:13;25.00;50.00
36652;DHT22;53334;51.976;20.144;2022-12-18T15:01:59;25.00;50.20
36652;DHT22;53334;51.976;20.144;2022-12-18T15:04:39;25.00;50.00
36652;DHT22;53334;51.976;20.144;2022-12-18T15:07:17;25.00;50.00
36652;DHT22;53334;51.976;20.144;2022-12-18T15:10:04;25.00;50.00
36652;DHT22;53334;51.976;20.144;2022-12-18T15:12:44;25.10;50.30
36652;DHT22;53334;51.976;20.144;2022-12-18T15:15:48;25.10;50.70
36652;DHT22;53334;51.976;20.144;2022-12-18T15:18:27;25.10;51.30
36652;DHT22;53334;51.976;20.144;2022-12-18T15:21:09;25.10;51.30
36652;DHT22;53334;51.976;20.144;2022-12-18T15:23:46;25.20;51.10
36652;DHT22;53334;51.976;20.144;2022-12-18T15:26:21;25.20;50.90
36652;DHT22;53334;51.976;20.144;2022-12-18T15:28:55;25.20;50.90
36652;DHT22;53334;51.976;20.144;2022-12-18T15:31:33;25.20;51.30
36652;DHT22;53334;51.976;20.144;2022-12-18T15:34:13;25.30;51.90
36652;DHT22;53334;51.976;20.144;2022-12-18T15:36:46;25.30;52.10
36652;DHT22;53334;51.976;20.144;2022-12-18T15:39:20;25.30;52.50
36652;DHT22;53334;51.976;20.144;2022-12-18T15:41:53;25.30;52.90
36652;DHT22;53334;51.976;20.144;2022-12-18T15:44:44;25.30;53.00
36652;DHT22;53334;51.976;20.144;2022-12-18T15:47:18;25.30;52.80
36652;DHT22;53334;51.976;20.144;2022-12-18T15:49:52;25.30;52.60
36652;DHT22;53334;51.976;20.144;2022-12-18T15:52:25;25.30;52.30
36652;DHT22;53334;51.976;20.144;2022-12-18T15:54:58;25.40;52.10
36652;DHT22;53334;51.976;20.144;2022-12-18T15:57:49;25.30;51.80
36652;DHT22;53334;51.976;20.144;2022-12-18T16:00:22;25.30;51.30
36652;DHT22;53334;51.976;20.144;2022-12-18T16:02:57;25.30;50.90
36652;DHT22;53334;51.976;20.144;2022-12-18T16:05:31;25.30;50.50
36652;DHT22;53334;51.976;20.144;2022-12-18T16:08:04;25.30;50.20
36652;DHT22;53334;51.976;20.144;2022-12-18T16:10:37;25.30;49.70
36652;DHT22;53334;51.976;20.144;2022-12-18T16:13:11;25.30;49.40
36652;DHT22;53334;51.976;20.144;2022-12-18T16:15:45;25.30;49.10
36652;DHT22;53334;51.976;20.144;2022-12-18T16:18:20;25.30;48.90
36652;DHT22;53334;51.976;20.144;2022-12-18T16:20:53;25.30;48.70
36652;DHT22;53334;51.976;20.144;2022-12-18T16:23:26;25.30;48.50
36652;DHT22;53334;51.976;20.144;2022-12-18T16:26:00;25.30;48.60
36652;DHT22;53334;51.976;20.144;2022-12-18T16:28:33;25.30;48.60